Time;durP1;ratioP1;P1;durP2;ratioP2;P2;SDS_P1;SDS_P2;PMS_P1;PMS_P2;Temp;Humidity;BMP_temperature;BMP_pressure;BME280_temperature;BME280_humidity;BME280_pressure;Samples;Min_cycle;Max_cycle;Signal;HPM_P1;HPM_P2
2023/12/08 00:00:38;;;;;;;0.57;0.57;;;;;;;2.94;100.00;94663.53;5011125;28;20228;-75
2023/12/08 00:03:06;;;;;;;0.20;0.20;;;;;;;2.96;100.00;94670.22;5011632;28;20275;-74
2023/12/08 00:05:33;;;;;;;0.20;0.20;;;;;;;3.05;100.00;94671.19;5011625;28;20645;-79
2023/12/08 00:07:59;;;;;;;0.40;0.40;;;;;;;3.14;100.00;94661.47;5011156;28;20255;-80
2023/12/08 00:10:26;;;;;;;0.20;0.20;;;;;;;3.14;100.00;94664.16;5010764;28;20213;-81
2023/12/08 00:12:53;;;;;;;0.20;0.20;;;;;;;3.01;100.00;94666.69;5020462;28;20200;-78
2023/12/08 00:15:20;;;;;;;0.20;0.20;;;;;;;2.90;100.00;94675.84;5014585;28;20267;-79
2023/12/08 00:17:46;;;;;;;0.20;0.20;;;;;;;3.21;100.00;94677.25;5011057;28;20209;-79
2023/12/08 00:20:15;;;;;;;0.20;0.20;;;;;;;3.25;100.00;94678.28;5010263;28;20232;-79
2023/12/08 00:22:42;;;;;;;0.20;0.20;;;;;;;3.16;100.00;94674.59;5011069;28;20680;-79
2023/12/08 00:25:09;;;;;;;0.20;0.20;;;;;;;3.19;100.00;94666.81;5010613;28;20286;-78
2023/12/08 00:27:36;;;;;;;0.20;0.20;;;;;;;3.13;100.00;94675.16;5010524;28;20216;-79
2023/12/08 00:30:04;;;;;;;0.20;0.20;;;;;;;2.84;100.00;94673.22;5011066;28;20267;-79
2023/12/08 00:32:31;;;;;;;0.20;0.20;;;;;;;3.02;100.00;94668.28;5010074;28;20204;-81
2023/12/08 00:34:57;;;;;;;0.30;0.30;;;;;;;3.01;100.00;94672.03;5029107;28;20308;-81
2023/12/08 00:37:26;;;;;;;0.20;0.20;;;;;;;3.04;100.00;94671.47;5030466;28;20212;-80
2023/12/08 00:39:53;;;;;;;0.20;0.20;;;;;;;2.71;100.00;94667.72;5019265;28;20278;-81
2023/12/08 00:42:20;;;;;;;0.20;0.20;;;;;;;3.04;100.00;94671.47;5010314;28;20258;-83
2023/12/08 00:44:47;;;;;;;0.40;0.30;;;;;;;2.94;100.00;94660.84;5010936;28;20220;-81
2023/12/08 00:47:15;;;;;;;0.65;0.65;;;;;;;3.01;100.00;94669.34;5010764;28;20209;-80
2023/12/08 00:49:42;;;;;;;0.20;0.20;;;;;;;3.09;100.00;94663.41;5010550;28;20213;-82
2023/12/08 00:52:08;;;;;;;0.20;0.20;;;;;;;2.93;100.00;94659.25;5010691;28;20244;-81
2023/12/08 00:54:36;;;;;;;0.73;0.40;;;;;;;3.08;100.00;94665.28;5010407;28;20209;-81
2023/12/08 00:57:04;;;;;;;0.30;0.30;;;;;;;3.00;100.00;94660.56;5011071;28;20279;-79
2023/12/08 00:59:30;;;;;;;0.30;0.30;;;;;;;3.05;100.00;94657.81;5014545;28;20357;-80
2023/12/08 01:01:57;;;;;;;0.40;0.40;;;;;;;2.96;100.00;94669.41;5014401;28;20302;-79
2023/12/08 01:04:24;;;;;;;0.20;0.20;;;;;;;2.73;100.00;94670.91;5014398;28;20282;-78
2023/12/08 01:06:51;;;;;;;0.28;0.28;;;;;;;2.84;100.00;94661.72;5014356;28;20224;-78
2023/12/08 01:09:18;;;;;;;0.50;0.50;;;;;;;2.78;100.00;94679.69;5014339;28;20220;-77
2023/12/08 01:11:46;;;;;;;0.30;0.30;;;;;;;3.02;100.00;94673.63;5013834;28;20201;-79
2023/12/08 01:14:13;;;;;;;0.85;0.85;;;;;;;2.93;100.00;94659.25;5014004;28;20213;-78
2023/12/08 01:16:41;;;;;;;0.80;0.75;;;;;;;2.85;100.00;94666.81;5014050;28;20948;-79
2023/12/08 01:19:09;;;;;;;0.20;0.20;;;;;;;2.74;100.00;94678.63;5014176;28;20262;-78
2023/12/08 01:21:37;;;;;;;0.40;0.40;;;;;;;2.87;100.00;94677.19;5028484;28;20251;-77
2023/12/08 01:24:04;;;;;;;0.57;0.57;;;;;;;2.74;100.00;94675.94;5026333;28;20209;-76
2023/12/08 01:26:31;;;;;;;0.20;0.20;;;;;;;2.63;100.00;94677.09;5013746;28;20228;-76
2023/12/08 01:28:59;;;;;;;0.30;0.30;;;;;;;2.73;100.00;94671.69;5014157;28;20232;-76
2023/12/08 01:31:26;;;;;;;0.55;0.55;;;;;;;2.69;100.00;94676.00;5013786;28;20205;-75
2023/12/08 01:33:53;;;;;;;0.20;0.20;;;;;;;2.64;100.00;94668.00;5023154;28;20208;-76
2023/12/08 01:36:20;;;;;;;0.20;0.20;;;;;;;2.79;100.00;94675.13;5033853;28;20600;-77
2023/12/08 01:38:47;;;;;;;0.30;0.30;;;;;;;2.87;99.83;94673.75;5033392;28;20204;-77
2023/12/08 01:41:14;;;;;;;0.22;0.22;;;;;;;2.74;99.47;94675.94;5017353;28;20239;-76
2023/12/08 01:43:41;;;;;;;0.90;0.90;;;;;;;2.71;98.98;94667.72;5013421;28;20215;-76
2023/12/08 01:46:11;;;;;;;0.22;0.22;;;;;;;2.71;99.23;94673.84;5013353;28;20217;-76
2023/12/08 01:48:38;;;;;;;0.20;0.20;;;;;;;2.78;99.59;94663.63;5013388;28;20221;-76
2023/12/08 01:51:05;;;;;;;0.35;0.35;;;;;;;2.84;100.00;94661.72;5013308;28;20209;-76
2023/12/08 01:53:33;;;;;;;0.40;0.40;;;;;;;2.88;99.92;94667.31;5013373;28;20232;-76
2023/12/08 01:56:00;;;;;;;0.25;0.25;;;;;;;2.83;99.14;94666.28;5013049;28;20260;-76
2023/12/08 01:58:27;;;;;;;0.20;0.20;;;;;;;2.69;99.09;94676.00;5013217;28;20259;-76
2023/12/08 02:00:54;;;;;;;0.40;0.40;;;;;;;2.66;98.83;94667.72;5013515;28;20232;-76
2023/12/08 02:03:25;;;;;;;0.38;0.38;;;;;;;2.68;99.24;94674.41;5013205;28;20212;-76
2023/12/08 02:05:51;;;;;;;0.40;0.40;;;;;;;2.65;98.90;94669.59;5013105;28;20268;-76
2023/12/08 02:08:19;;;;;;;0.20;0.20;;;;;;;2.55;98.64;94675.00;5012945;28;20213;-76
2023/12/08 02:10:45;;;;;;;0.20;0.20;;;;;;;2.47;99.34;94675.56;5013050;28;20234;-76
2023/12/08 02:13:13;;;;;;;0.20;0.20;;;;;;;2.80;99.12;94674.84;5013052;28;20216;-76
2023/12/08 02:15:40;;;;;;;0.38;0.38;;;;;;;2.57;97.99;94675.53;5012600;28;20624;-76
2023/12/08 02:18:10;;;;;;;0.20;0.20;;;;;;;2.56;98.19;94681.16;5013408;28;20216;-76
2023/12/08 02:20:38;;;;;;;0.20;0.20;;;;;;;2.72;98.32;94680.81;5012722;28;20213;-76
2023/12/08 02:23:06;;;;;;;0.20;0.20;;;;;;;2.52;98.41;94691.59;5013078;28;20213;-80
2023/12/08 02:25:35;;;;;;;0.20;0.20;;;;;;;2.79;98.34;94688.50;5012637;28;20212;-78
2023/12/08 02:28:03;;;;;;;0.20;0.20;;;;;;;2.80;98.98;94693.56;5013367;28;20240;-80
2023/12/08 02:30:30;;;;;;;0.20;0.20;;;;;;;2.82;98.26;94680.72;5012832;28;20209;-79
2023/12/08 02:33:03;;;;;;;0.20;0.20;;;;;;;2.95;97.96;94690.00;5014629;28;20263;-81
2023/12/08 02:35:33;;;;;;;0.60;0.60;;;;;;;2.76;97.55;94692.53;5032155;28;20295;-80
2023/12/08 02:38:02;;;;;;;0.20;0.20;;;;;;;2.77;97.69;94694.13;5032573;28;20262;-79
2023/12/08 02:40:29;;;;;;;0.20;0.20;;;;;;;2.79;98.69;94696.53;5022068;28;20275;-79
2023/12/08 02:42:58;;;;;;;0.20;0.20;;;;;;;2.81;98.02;94684.47;5012721;28;20626;-77
2023/12/08 02:45:24;;;;;;;0.55;0.55;;;;;;;2.90;97.07;94691.91;5012330;28;20209;-79
2023/12/08 02:47:51;;;;;;;0.20;0.20;;;;;;;2.73;97.77;94687.72;5012417;28;20220;-78
2023/12/08 02:50:18;;;;;;;0.20;0.20;;;;;;;2.71;96.80;94692.56;5012784;28;20221;-79
2023/12/08 02:52:45;;;;;;;0.20;0.20;;;;;;;2.78;96.40;94685.03;5012117;28;20236;-79
2023/12/08 02:55:11;;;;;;;0.22;0.22;;;;;;;2.71;96.59;94689.09;5012217;28;20212;-79
2023/12/08 02:57:38;;;;;;;0.25;0.25;;;;;;;2.81;97.36;94689.84;5012371;28;20221;-78
2023/12/08 03:00:08;;;;;;;0.20;0.20;;;;;;;2.89;96.77;94682.28;5012459;28;20251;-80
2023/12/08 03:02:35;;;;;;;6.88;1.10;;;;;;;2.87;96.50;94687.13;5011834;28;20252;-79
2023/12/08 03:05:02;;;;;;;0.20;0.20;;;;;;;2.92;96.69;94679.06;5012682;28;20635;-77
2023/12/08 03:07:29;;;;;;;0.20;0.20;;;;;;;2.84;95.87;94689.28;5011583;28;20267;-77
2023/12/08 03:09:56;;;;;;;0.40;0.40;;;;;;;2.55;96.14;94687.59;5012432;28;20620;-77
2023/12/08 03:12:23;;;;;;;0.20;0.20;;;;;;;2.82;97.31;94691.44;5011982;28;20263;-77
2023/12/08 03:14:49;;;;;;;0.20;0.20;;;;;;;2.71;97.30;94689.91;5011795;28;20319;-78
2023/12/08 03:17:18;;;;;;;0.25;0.25;;;;;;;2.81;96.10;94684.47;5011778;28;20209;-79
2023/12/08 03:19:45;;;;;;;0.20;0.20;;;;;;;2.63;96.64;94681.63;5011254;28;20221;-78
2023/12/08 03:22:12;;;;;;;0.20;0.20;;;;;;;2.55;97.80;94677.69;5011555;28;20276;-78
2023/12/08 03:24:39;;;;;;;1.35;0.95;;;;;;;2.59;96.62;94670.72;5011376;28;20212;-77
2023/12/08 03:27:06;;;;;;;1.50;1.30;;;;;;;2.54;96.78;94689.44;5011913;28;20216;-76
2023/12/08 03:29:33;;;;;;;4.13;1.67;;;;;;;2.75;96.93;94688.25;5012481;28;20215;-74
2023/12/08 03:32:00;;;;;;;2.80;2.22;;;;;;;2.66;96.67;94684.56;5011632;28;20265;-73
2023/12/08 03:34:28;;;;;;;2.35;1.23;;;;;;;2.73;96.38;94681.59;5025610;28;20711;-73
2023/12/08 03:36:54;;;;;;;2.85;1.40;;;;;;;2.72;96.34;94683.47;5031110;28;20555;-73
2023/12/08 03:39:21;;;;;;;2.53;1.58;;;;;;;2.71;97.08;94679.19;5030484;28;20200;-73
2023/12/08 03:41:48;;;;;;;4.35;1.40;;;;;;;2.60;97.41;94672.28;5014005;28;20499;-73
2023/12/08 03:44:15;;;;;;;1.70;1.27;;;;;;;2.55;97.46;94674.22;5028878;28;20201;-73
2023/12/08 03:46:43;;;;;;;7.40;1.70;;;;;;;2.51;97.45;94679.31;5027370;28;20262;-72
2023/12/08 03:49:10;;;;;;;3.53;1.88;;;;;;;2.56;97.08;94676.63;5028154;28;20204;-73
2023/12/08 03:51:41;;;;;;;2.30;1.67;;;;;;;2.69;96.82;94667.19;5029822;28;20205;-75
2023/12/08 03:54:09;;;;;;;3.33;1.55;;;;;;;2.29;97.08;94660.19;5026228;28;20211;-74
2023/12/08 03:56:36;;;;;;;2.05;1.65;;;;;;;2.46;96.80;94665.97;5026416;28;20270;-74
2023/12/08 03:59:02;;;;;;;4.72;1.48;;;;;;;2.38;96.19;94658.53;5022376;28;20208;-73
2023/12/08 04:01:29;;;;;;;2.17;0.85;;;;;;;2.34;96.58;94660.13;5024181;28;20767;-74
2023/12/08 04:03:56;;;;;;;1.70;1.38;;;;;;;2.36;96.35;94656.13;5030537;28;20204;-76
2023/12/08 04:06:23;;;;;;;2.10;1.73;;;;;;;2.49;96.00;94654.72;5028992;28;20204;-74
2023/12/08 04:08:51;;;;;;;0.95;0.88;;;;;;;2.51;96.84;94649.91;5029404;28;20580;-76
2023/12/08 04:11:17;;;;;;;0.30;0.30;;;;;;;2.60;96.50;94645.56;5028452;28;20691;-73
2023/12/08 04:13:44;;;;;;;3.38;0.80;;;;;;;4.11;100.00;94637.22;5023369;28;20205;-76
2023/12/08 04:16:11;;;;;;;0.20;0.20;;;;;;;3.15;96.61;94632.84;5027885;28;20278;-76
2023/12/08 04:18:38;;;;;;;0.20;0.20;;;;;;;2.64;95.65;94630.56;5028462;28;20220;-77
2023/12/08 04:21:05;;;;;;;2.67;1.80;;;;;;;2.55;96.18;94629.56;5027792;28;20212;-76
2023/12/08 04:23:31;;;;;;;3.70;0.85;;;;;;;2.65;95.50;94642.84;5028133;28;20228;-75
2023/12/08 04:25:59;;;;;;;6.72;1.85;;;;;;;2.64;95.94;94635.91;5028524;28;20204;-75
2023/12/08 04:28:26;;;;;;;0.75;0.75;;;;;;;2.57;96.04;94634.63;5027177;28;20653;-75
2023/12/08 04:30:53;;;;;;;1.05;0.93;;;;;;;2.34;96.14;94636.88;5028402;28;20208;-75
2023/12/08 04:33:20;;;;;;;0.95;0.88;;;;;;;2.28;95.87;94637.19;5029620;28;20250;-77
2023/12/08 04:35:46;;;;;;;2.30;1.25;;;;;;;2.58;95.41;94633.56;5029569;28;20580;-76
2023/12/08 04:38:13;;;;;;;2.60;1.58;;;;;;;2.68;95.19;94631.63;5028494;28;20204;-76
2023/12/08 04:40:40;;;;;;;1.33;1.23;;;;;;;2.70;94.51;94640.16;5027741;28;20204;-76
2023/12/08 04:43:08;;;;;;;0.20;0.20;;;;;;;2.78;94.80;94647.59;5026053;28;20635;-75
2023/12/08 04:45:35;;;;;;;0.20;0.20;;;;;;;2.69;94.81;94654.59;5027207;28;20219;-76
2023/12/08 04:48:02;;;;;;;0.30;0.30;;;;;;;2.59;93.87;94654.69;5028387;28;20259;-74
2023/12/08 04:50:28;;;;;;;3.67;3.50;;;;;;;2.42;94.67;94655.03;5025143;28;20208;-76
2023/12/08 04:52:57;;;;;;;0.20;0.20;;;;;;;2.62;94.75;94664.81;5026734;28;20244;-76
2023/12/08 04:55:24;;;;;;;0.20;0.20;;;;;;;2.47;94.44;94664.88;5024615;28;20258;-77
2023/12/08 04:57:51;;;;;;;0.20;0.20;;;;;;;2.40;95.06;94667.06;5026963;28;20204;-76
2023/12/08 05:00:20;;;;;;;0.20;0.20;;;;;;;2.64;94.73;94668.00;5025653;28;20685;-75
2023/12/08 05:02:48;;;;;;;0.20;0.20;;;;;;;2.65;94.86;94664.25;5026117;28;20224;-75
2023/12/08 05:05:15;;;;;;;0.30;0.30;;;;;;;2.51;94.78;94663.25;5027065;28;20210;-76
2023/12/08 05:07:41;;;;;;;0.70;0.70;;;;;;;2.58;95.25;94663.78;5029030;28;20263;-77
2023/12/08 05:10:09;;;;;;;1.20;0.98;;;;;;;2.77;95.12;94670.06;5028255;28;20209;-76
2023/12/08 05:12:36;;;;;;;2.47;1.52;;;;;;;2.89;95.32;94671.59;5026555;28;20286;-76
2023/12/08 05:15:04;;;;;;;2.55;1.58;;;;;;;2.70;93.72;94676.81;5029167;28;20267;-76
2023/12/08 05:17:32;;;;;;;5.07;1.85;;;;;;;2.56;94.65;94671.25;5026405;28;20275;-78
2023/12/08 05:20:02;;;;;;;0.63;0.57;;;;;;;2.49;94.01;94678.78;5015054;28;20209;-75
2023/12/08 05:22:28;;;;;;;0.30;0.30;;;;;;;2.42;94.90;94675.63;5016916;28;20232;-78
2023/12/08 05:24:55;;;;;;;0.20;0.20;;;;;;;2.60;95.17;94672.28;5027263;28;20223;-75
2023/12/08 05:27:22;;;;;;;0.30;0.30;;;;;;;2.40;94.58;94667.06;5018785;28;20254;-75
2023/12/08 05:29:49;;;;;;;0.25;0.25;;;;;;;2.45;94.65;94680.41;5025018;28;20247;-76
2023/12/08 05:32:16;;;;;;;1.40;1.30;;;;;;;2.52;94.92;94664.88;5030137;28;20547;-77
2023/12/08 05:34:44;;;;;;;2.78;1.30;;;;;;;2.53;95.47;94669.13;5029891;28;20611;-77
2023/12/08 05:37:10;;;;;;;1.48;1.27;;;;;;;2.55;94.96;94672.34;5029960;28;20282;-78
2023/12/08 05:39:37;;;;;;;1.58;1.00;;;;;;;2.42;95.20;94672.94;5028742;28;20217;-80
2023/12/08 05:42:04;;;;;;;2.03;1.20;;;;;;;2.61;95.41;94684.59;5013019;28;20590;-80
2023/12/08 05:44:34;;;;;;;2.42;1.42;;;;;;;2.55;94.67;94669.66;5032572;28;20922;-81
2023/12/08 05:47:01;;;;;;;1.20;1.08;;;;;;;2.54;94.85;94680.63;5045478;28;20207;-81
2023/12/08 05:49:28;;;;;;;0.20;0.20;;;;;;;2.83;94.35;94676.97;5046570;28;20309;-80
2023/12/08 05:51:56;;;;;;;0.45;0.45;;;;;;;2.80;93.66;94688.22;5043920;28;20223;-81
2023/12/08 05:54:23;;;;;;;4.57;0.75;;;;;;;2.52;94.58;94691.59;5045009;28;20204;-80
2023/12/08 05:56:50;;;;;;;0.20;0.20;;;;;;;2.78;93.22;94694.94;5044366;28;20203;-79
2023/12/08 05:59:16;;;;;;;0.30;0.30;;;;;;;2.81;92.68;94695.19;5040762;28;20209;-77
2023/12/08 06:01:43;;;;;;;0.20;0.20;;;;;;;2.95;92.14;94695.34;5036478;28;20226;-76
2023/12/08 06:04:10;;;;;;;0.20;0.20;;;;;;;2.96;92.11;94696.16;5041002;28;20261;-78
2023/12/08 06:06:37;;;;;;;0.20;0.20;;;;;;;3.02;91.87;94705.72;5041284;28;20200;-82
2023/12/08 06:09:07;;;;;;;0.30;0.30;;;;;;;2.90;92.76;94697.25;5042641;28;20558;-79
2023/12/08 06:11:34;;;;;;;0.47;0.47;;;;;;;2.82;93.13;94699.47;5039034;28;20204;-79
2023/12/08 06:14:00;;;;;;;0.20;0.20;;;;;;;2.78;93.80;94706.44;5046387;28;20195;-79
2023/12/08 06:16:27;;;;;;;0.50;0.50;;;;;;;2.70;93.51;94703.53;5044704;28;20199;-79
2023/12/08 06:18:54;;;;;;;0.20;0.20;;;;;;;2.86;93.52;94702.38;5017434;28;20212;-79
2023/12/08 06:21:21;;;;;;;0.20;0.20;;;;;;;2.94;93.25;94703.66;5015718;28;20573;-79
2023/12/08 06:23:48;;;;;;;0.20;0.20;;;;;;;2.98;92.97;94700.16;5015917;28;20236;-78
2023/12/08 06:26:16;;;;;;;0.20;0.20;;;;;;;2.85;93.57;94709.59;5029356;28;20204;-80
2023/12/08 06:28:43;;;;;;;0.38;0.38;;;;;;;2.71;93.57;94715.84;5029515;28;20704;-78
2023/12/08 06:31:10;;;;;;;0.20;0.20;;;;;;;2.77;92.91;94715.53;5025117;28;20236;-80
2023/12/08 06:33:37;;;;;;;0.20;0.20;;;;;;;2.93;92.42;94720.78;5034271;28;20204;-80
2023/12/08 06:36:05;;;;;;;0.40;0.40;;;;;;;3.22;92.76;94709.06;5048089;28;20206;-78
2023/12/08 06:38:33;;;;;;;0.20;0.20;;;;;;;3.00;91.85;94719.41;5046897;28;20562;-80
2023/12/08 06:41:00;;;;;;;0.20;0.20;;;;;;;2.64;92.80;94721.47;5029948;28;20223;-76
2023/12/08 06:43:29;;;;;;;0.20;0.20;;;;;;;3.17;92.50;94719.00;5027037;28;20255;-79
2023/12/08 06:45:56;;;;;;;0.50;0.50;;;;;;;2.62;91.58;94722.81;5020144;28;20213;-78
2023/12/08 06:48:23;;;;;;;0.20;0.20;;;;;;;2.78;92.02;94722.47;5023581;28;20291;-80
2023/12/08 06:50:53;;;;;;;0.43;0.43;;;;;;;2.74;91.91;94721.41;5005982;28;20227;-80
2023/12/08 06:53:20;;;;;;;0.20;0.20;;;;;;;2.86;92.21;94718.44;5024132;28;20248;-80
2023/12/08 06:55:46;;;;;;;0.20;0.20;;;;;;;2.75;92.83;94728.38;5022037;28;20707;-79
2023/12/08 06:58:13;;;;;;;0.30;0.30;;;;;;;2.73;91.66;94724.41;5026345;28;20240;-79
2023/12/08 07:00:41;;;;;;;0.28;0.28;;;;;;;2.89;92.57;94722.41;5025867;28;20213;-79
2023/12/08 07:03:12;;;;;;;0.20;0.20;;;;;;;2.85;92.82;94722.97;5026533;28;20225;-79
2023/12/08 07:05:39;;;;;;;0.52;0.52;;;;;;;2.66;92.22;94719.34;5039980;28;20258;-77
2023/12/08 07:08:06;;;;;;;0.28;0.28;;;;;;;2.73;93.24;94727.84;5035287;28;20220;-81
2023/12/08 07:10:33;;;;;;;0.73;0.73;;;;;;;2.69;93.21;94723.34;5026190;28;20220;-79
2023/12/08 07:12:59;;;;;;;0.50;0.50;;;;;;;2.63;93.12;94729.78;5023214;28;20209;-80
2023/12/08 07:15:26;;;;;;;0.22;0.22;;;;;;;2.50;93.32;94725.81;5025845;28;20236;-78
2023/12/08 07:17:56;;;;;;;0.30;0.30;;;;;;;2.61;93.03;94730.03;5019305;28;20205;-81
2023/12/08 07:20:23;;;;;;;0.30;0.30;;;;;;;2.75;93.12;94724.88;5011886;28;20201;-80
2023/12/08 07:22:49;;;;;;;0.38;0.38;;;;;;;2.82;93.71;94733.44;5011826;28;20244;-80
2023/12/08 07:25:16;;;;;;;0.40;0.40;;;;;;;3.02;92.65;94716.44;5012285;28;20274;-81
2023/12/08 07:27:43;;;;;;;0.20;0.20;;;;;;;3.07;92.82;94719.88;5011997;28;20592;-79
2023/12/08 07:30:11;;;;;;;0.20;0.20;;;;;;;2.82;92.68;94734.22;5011735;28;20316;-82
2023/12/08 07:32:38;;;;;;;0.20;0.20;;;;;;;3.06;92.34;94725.50;5012042;28;20217;-81
2023/12/08 07:35:08;;;;;;;0.30;0.30;;;;;;;3.10;92.13;94734.59;5030802;28;20270;-81
2023/12/08 07:37:34;;;;;;;0.20;0.20;;;;;;;2.95;91.48;94721.31;5031497;28;20216;-81
2023/12/08 07:40:06;;;;;;;0.85;0.63;;;;;;;3.24;91.50;94740.91;5024959;28;20756;-81
2023/12/08 07:42:32;;;;;;;0.20;0.20;;;;;;;2.98;92.09;94736.81;5012150;28;20586;-82
2023/12/08 07:45:00;;;;;;;0.30;0.30;;;;;;;2.85;92.97;94728.34;5012300;28;20213;-82
2023/12/08 07:47:27;;;;;;;0.32;0.32;;;;;;;3.06;93.02;94738.91;5011865;28;20573;-81
2023/12/08 07:49:54;;;;;;;0.20;0.20;;;;;;;3.01;92.68;94746.94;5011476;28;20307;-80
2023/12/08 07:52:22;;;;;;;0.20;0.20;;;;;;;3.19;93.65;94738.28;5011689;28;20251;-81
2023/12/08 07:55:00;;;;;;;0.28;0.28;;;;;;;3.50;92.76;94739.66;5011990;28;20217;-82
2023/12/08 07:57:32;;;;;;;0.20;0.20;;;;;;;3.46;92.58;94738.59;5011725;28;20575;-81
2023/12/08 07:59:59;;;;;;;0.20;0.20;;;;;;;3.37;92.70;94740.28;5011794;28;20678;-80
2023/12/08 08:02:26;;;;;;;0.75;0.75;;;;;;;3.63;92.78;94742.75;5014793;28;20646;-80
2023/12/08 08:04:53;;;;;;;0.20;0.20;;;;;;;3.47;92.56;94734.84;5021147;28;20212;-81
2023/12/08 08:07:24;;;;;;;0.20;0.20;;;;;;;3.40;91.95;94734.38;5010303;28;20217;-81
2023/12/08 08:09:51;;;;;;;0.20;0.20;;;;;;;3.47;92.68;94729.50;5011417;28;20583;-80
2023/12/08 08:12:18;;;;;;;0.20;0.20;;;;;;;3.40;92.43;94737.06;5011149;28;20213;-81
2023/12/08 08:14:45;;;;;;;0.30;0.30;;;;;;;3.22;92.07;94727.00;5010937;28;20259;-79
2023/12/08 08:17:12;;;;;;;0.32;0.32;;;;;;;3.28;92.69;94725.88;5015683;28;20305;-81
2023/12/08 08:19:38;;;;;;;0.20;0.20;;;;;;;3.34;92.51;94724.78;5031003;28;20220;-80
2023/12/08 08:22:05;;;;;;;0.20;0.20;;;;;;;3.25;92.48;94718.44;5013254;28;20743;-81
2023/12/08 08:24:34;;;;;;;0.20;0.20;;;;;;;3.60;92.04;94721.88;5011512;28;20229;-81
2023/12/08 08:27:01;;;;;;;0.20;0.20;;;;;;;3.54;90.78;94708.56;5011141;28;20931;-81
2023/12/08 08:29:28;;;;;;;0.20;0.20;;;;;;;3.26;91.64;94703.97;5011568;28;20975;-82
2023/12/08 08:31:55;;;;;;;0.20;0.20;;;;;;;3.50;91.80;94694.13;5016190;28;20213;-80
2023/12/08 08:34:21;;;;;;;0.20;0.20;;;;;;;3.64;90.46;94706.88;5030835;28;20208;-80
2023/12/08 08:36:48;;;;;;;0.20;0.20;;;;;;;3.99;89.50;94666.31;5030643;28;20637;-80
2023/12/08 08:39:15;;;;;;;0.20;0.20;;;;;;;3.68;89.71;94691.84;5031336;28;20204;-82
2023/12/08 08:41:45;;;;;;;0.63;0.63;;;;;;;3.67;89.69;94690.22;5030784;28;20212;-82
2023/12/08 08:44:11;;;;;;;0.68;0.68;;;;;;;3.65;90.33;94693.19;5030677;28;20282;-81
2023/12/08 08:46:40;;;;;;;0.30;0.30;;;;;;;3.50;88.86;94683.41;5030812;28;20204;-81
2023/12/08 08:49:08;;;;;;;0.40;0.40;;;;;;;3.71;90.38;94685.88;5031173;28;20262;-82
2023/12/08 08:51:36;;;;;;;0.60;0.60;;;;;;;3.88;89.19;94686.25;5030770;28;20208;-82
2023/12/08 08:54:03;;;;;;;0.32;0.32;;;;;;;3.73;88.79;94678.38;5030233;28;20247;-80
2023/12/08 08:56:30;;;;;;;0.20;0.20;;;;;;;3.48;88.92;94688.25;5030915;28;20212;-80
2023/12/08 08:58:58;;;;;;;0.20;0.20;;;;;;;3.76;89.23;94683.16;5030203;28;20207;-81
2023/12/08 09:01:25;;;;;;;0.20;0.20;;;;;;;3.81;89.11;94675.91;5031104;28;20546;-82
2023/12/08 09:03:51;;;;;;;0.47;0.47;;;;;;;3.89;88.42;94672.59;5030146;28;20235;-81
2023/12/08 09:06:18;;;;;;;0.20;0.20;;;;;;;4.04;87.32;94685.03;5031253;28;20568;-81
2023/12/08 09:08:45;;;;;;;0.20;0.20;;;;;;;4.21;86.89;94666.59;5017110;28;20211;-81
2023/12/08 09:11:12;;;;;;;0.20;0.20;;;;;;;4.26;86.40;94666.53;5021232;28;20220;-82
2023/12/08 09:13:39;;;;;;;0.20;0.20;;;;;;;4.10;87.23;94662.41;5010331;28;20213;-80
2023/12/08 09:16:07;;;;;;;0.20;0.20;;;;;;;4.07;86.18;94668.38;5010594;28;20212;-81
2023/12/08 09:18:34;;;;;;;0.20;0.20;;;;;;;4.18;86.25;94671.72;5012256;28;20236;-80
2023/12/08 09:21:02;;;;;;;0.20;0.20;;;;;;;4.34;87.12;94661.63;5014872;28;20224;-82
2023/12/08 09:23:31;;;;;;;0.20;0.20;;;;;;;4.20;85.82;94656.16;5014912;28;20587;-80
2023/12/08 09:25:59;;;;;;;0.20;0.20;;;;;;;4.12;85.52;94628.09;5014080;28;20213;-81
2023/12/08 09:28:26;;;;;;;0.47;0.47;;;;;;;4.19;85.17;94658.03;5014665;28;20624;-81
2023/12/08 09:30:53;;;;;;;0.20;0.20;;;;;;;4.37;85.44;94644.97;5025491;28;20573;-80
2023/12/08 09:33:21;;;;;;;0.20;0.20;;;;;;;4.46;85.66;94653.94;5034140;28;20200;-82
2023/12/08 09:35:50;;;;;;;0.43;0.43;;;;;;;4.38;85.63;94636.59;5033988;28;20584;-81
2023/12/08 09:38:16;;;;;;;0.30;0.30;;;;;;;4.36;85.27;94646.03;5034200;28;20201;-81
2023/12/08 09:40:46;;;;;;;4.63;0.63;;;;;;;4.01;85.54;94645.38;5033664;28;20212;-82
2023/12/08 09:43:19;;;;;;;0.20;0.20;;;;;;;4.06;84.84;94633.81;5034144;28;20553;-82
2023/12/08 09:45:50;;;;;;;0.20;0.20;;;;;;;4.14;86.60;94625.94;5033418;28;20219;-84
2023/12/08 09:48:18;;;;;;;0.30;0.30;;;;;;;3.73;84.87;94646.22;5034155;28;20211;-79
2023/12/08 09:50:47;;;;;;;0.35;0.35;;;;;;;3.68;86.04;94643.63;5033403;28;20256;-82
2023/12/08 09:53:14;;;;;;;0.65;0.40;;;;;;;4.08;85.26;94637.81;5034170;28;20236;-80
2023/12/08 09:55:41;;;;;;;0.20;0.20;;;;;;;3.96;86.44;94628.59;5035144;28;20571;-82
2023/12/08 09:58:09;;;;;;;0.60;0.60;;;;;;;4.18;84.56;94621.59;5025088;28;20787;-82
2023/12/08 10:00:37;;;;;;;0.20;0.20;;;;;;;4.22;85.68;94628.00;5016078;28;20216;-82
2023/12/08 10:03:04;;;;;;;0.35;0.35;;;;;;;4.13;84.56;94618.97;5033624;28;20629;-80
2023/12/08 10:05:31;;;;;;;0.20;0.20;;;;;;;4.36;84.05;94619.22;5017721;28;20205;-82
2023/12/08 10:08:01;;;;;;;0.20;0.20;;;;;;;4.65;84.72;94619.88;5023184;28;20216;-82
2023/12/08 10:10:28;;;;;;;0.20;0.20;;;;;;;4.76;83.35;94613.31;5030002;28;20268;-82
2023/12/08 10:12:55;;;;;;;0.65;0.65;;;;;;;4.43;83.19;94611.63;5013394;28;20518;-82
2023/12/08 10:15:22;;;;;;;0.28;0.28;;;;;;;4.67;83.34;94616.91;5013558;28;20205;-81
2023/12/08 10:17:51;;;;;;;3.70;0.95;;;;;;;4.40;83.56;94601.47;5013530;28;20236;-82
2023/12/08 10:20:19;;;;;;;0.57;0.57;;;;;;;4.04;85.30;94606.50;5013677;28;20244;-82
2023/12/08 10:22:50;;;;;;;0.30;0.30;;;;;;;3.89;86.32;94602.13;5013179;28;20209;-83
2023/12/08 10:25:20;;;;;;;0.20;0.20;;;;;;;4.29;85.61;94600.81;5013478;28;20224;-82
2023/12/08 10:27:49;;;;;;;0.50;0.50;;;;;;;4.01;84.82;94593.66;5013577;28;20267;-82
2023/12/08 10:30:19;;;;;;;0.20;0.20;;;;;;;4.25;84.41;94600.56;5013027;28;20220;-83
2023/12/08 10:32:47;;;;;;;0.47;0.47;;;;;;;4.06;84.46;94594.41;5013256;28;20566;-83
2023/12/08 10:35:14;;;;;;;0.20;0.20;;;;;;;4.27;84.59;94593.03;5020369;28;20200;-83
2023/12/08 10:37:44;;;;;;;0.30;0.30;;;;;;;4.29;85.18;94601.59;5033209;28;20229;-80
2023/12/08 10:40:12;;;;;;;0.20;0.20;;;;;;;4.24;84.38;94587.47;5025641;28;20205;-83
2023/12/08 10:42:41;;;;;;;0.20;0.20;;;;;;;4.43;85.92;94592.84;5013214;28;20682;-81
2023/12/08 10:45:11;;;;;;;0.20;0.20;;;;;;;4.43;85.13;94590.16;5013426;28;20566;-81
2023/12/08 10:47:40;;;;;;;0.20;0.20;;;;;;;4.76;83.47;94591.84;5026474;28;20212;-82
2023/12/08 10:50:09;;;;;;;0.40;0.40;;;;;;;4.62;84.06;94593.66;5023040;28;20217;-82
2023/12/08 10:52:37;;;;;;;0.30;0.30;;;;;;;4.84;83.09;94590.34;5032632;28;20239;-84
2023/12/08 10:55:26;;;;;;;0.25;0.25;;;;;;;4.44;83.51;94581.84;5004000;28;20201;-81
2023/12/08 10:57:57;;;;;;;0.20;0.20;;;;;;;3.98;85.64;94583.50;5012802;28;20216;-85
2023/12/08 11:00:26;;;;;;;0.35;0.35;;;;;;;4.19;86.26;94584.88;5012985;28;20244;-83
2023/12/08 11:02:53;;;;;;;0.20;0.20;;;;;;;4.30;85.18;94575.59;5019259;28;20585;-81
2023/12/08 11:05:26;;;;;;;0.28;0.28;;;;;;;4.65;83.67;94576.94;5012305;28;20232;-82
2023/12/08 11:07:55;;;;;;;0.25;0.25;;;;;;;4.54;85.30;94580.88;5012967;28;20208;-82
2023/12/08 11:10:27;;;;;;;0.93;0.88;;;;;;;4.00;85.45;94582.16;5012692;28;20213;-81
2023/12/08 11:13:00;;;;;;;0.20;0.20;;;;;;;4.36;85.97;94584.38;5012723;28;20636;-82
2023/12/08 11:15:34;;;;;;;0.20;0.20;;;;;;;4.36;84.57;94576.34;5012387;28;20232;-83
2023/12/08 11:18:15;;;;;;;0.20;0.20;;;;;;;4.46;83.78;94566.25;5012064;28;20244;-82
2023/12/08 11:20:43;;;;;;;0.25;0.25;;;;;;;3.86;85.39;94567.84;5014748;28;20213;-80
2023/12/08 11:23:10;;;;;;;0.30;0.30;;;;;;;3.67;85.70;94567.03;5013483;28;20565;-83
2023/12/08 11:25:42;;;;;;;0.28;0.28;;;;;;;4.24;86.52;94566.81;5012060;28;20259;-81
2023/12/08 11:28:23;;;;;;;0.60;0.60;;;;;;;4.28;85.68;94565.16;5012528;28;20209;-83
2023/12/08 11:30:55;;;;;;;0.20;0.20;;;;;;;3.87;86.22;94556.84;5012069;28;20279;-82
2023/12/08 11:33:30;;;;;;;0.30;0.30;;;;;;;4.21;85.49;94567.41;5016938;28;20208;-82
2023/12/08 11:36:07;;;;;;;0.20;0.20;;;;;;;4.32;85.93;94567.25;5031722;28;20208;-82
2023/12/08 11:38:34;;;;;;;0.20;0.20;;;;;;;4.14;85.25;94560.78;5031905;28;20246;-83
2023/12/08 11:41:01;;;;;;;0.38;0.28;;;;;;;4.09;85.39;94563.56;5016757;28;20216;-82
2023/12/08 11:43:31;;;;;;;0.20;0.20;;;;;;;4.21;86.00;94567.41;5012149;28;20244;-83